Time;durP1;ratioP1;P1;durP2;ratioP2;P2;SDS_P1;SDS_P2;PMS_P1;PMS_P2;Temp;Humidity;BMP_temperature;BMP_pressure;BME280_temperature;BME280_humidity;BME280_pressure;Samples;Min_cycle;Max_cycle;Signal;HPM_P1;HPM_P2
2021/06/24 00:02:14;;;;;;;16.63;14.97;;;14.30;99.90;;;;;;4932715;29;20486;-84
2021/06/24 00:04:41;;;;;;;15.30;13.87;;;14.30;99.90;;;;;;4931073;29;20451;-85
2021/06/24 00:07:07;;;;;;;15.70;14.20;;;14.30;99.90;;;;;;4932591;29;20460;-82
2021/06/24 00:09:34;;;;;;;17.10;13.77;;;14.30;99.90;;;;;;4932981;29;20457;-83
2021/06/24 00:12:01;;;;;;;15.20;13.73;;;14.30;99.90;;;;;;4933084;29;20529;-83
2021/06/24 00:14:28;;;;;;;14.57;12.63;;;14.30;99.90;;;;;;4933215;29;20451;-86
2021/06/24 00:16:55;;;;;;;15.87;13.80;;;14.30;99.90;;;;;;4934863;29;20470;-82
2021/06/24 00:19:24;;;;;;;14.17;12.87;;;14.30;99.90;;;;;;4935230;29;20461;-85
2021/06/24 00:21:51;;;;;;;17.00;15.00;;;14.20;99.90;;;;;;4934878;29;20492;-83
2021/06/24 00:24:18;;;;;;;16.07;14.57;;;14.20;99.90;;;;;;4932560;29;20442;-83
2021/06/24 00:26:47;;;;;;;15.03;13.43;;;14.20;99.90;;;;;;4931055;29;20474;-83
2021/06/24 00:29:14;;;;;;;15.87;14.23;;;14.20;99.90;;;;;;4933026;29;20561;-83
2021/06/24 00:31:41;;;;;;;15.20;13.60;;;14.20;99.90;;;;;;4936339;29;20750;-84
2021/06/24 00:34:08;;;;;;;15.20;13.60;;;14.20;99.90;;;;;;4936817;29;20911;-83
2021/06/24 00:36:36;;;;;;;16.70;14.87;;;14.20;99.90;;;;;;4936731;29;20840;-81
2021/06/24 00:39:04;;;;;;;13.80;12.60;;;14.20;99.90;;;;;;4938774;29;20446;-84
2021/06/24 00:41:31;;;;;;;17.17;14.60;;;14.20;99.90;;;;;;4921481;29;20486;-84
2021/06/24 00:43:58;;;;;;;14.30;12.57;;;14.20;99.90;;;;;;4938546;29;20449;-83
2021/06/24 00:46:25;;;;;;;18.90;13.10;;;14.20;99.90;;;;;;4935817;29;20472;-82
2021/06/24 00:48:57;;;;;;;15.23;13.63;;;14.20;99.90;;;;;;4934683;29;20413;-85
2021/06/24 00:51:24;;;;;;;15.40;12.43;;;14.20;99.90;;;;;;4918995;29;20454;-82
2021/06/24 00:53:52;;;;;;;14.63;13.27;;;14.20;99.90;;;;;;4936182;29;20553;-82
2021/06/24 00:56:27;;;;;;;15.10;13.63;;;14.20;99.90;;;;;;4936096;29;20467;-81
2021/06/24 00:58:54;;;;;;;13.80;12.50;;;14.20;99.90;;;;;;4919965;29;20454;-85
2021/06/24 01:01:21;;;;;;;13.00;11.80;;;14.20;99.90;;;;;;4938050;29;20489;-84
2021/06/24 01:03:48;;;;;;;13.33;11.93;;;14.20;99.90;;;;;;4938112;29;20460;-87
2021/06/24 01:06:15;;;;;;;14.30;12.97;;;14.20;99.90;;;;;;4938026;29;20558;-82
2021/06/24 01:08:42;;;;;;;18.17;12.93;;;14.20;99.90;;;;;;4935069;29;20439;-84
2021/06/24 01:11:10;;;;;;;11.87;10.77;;;14.20;99.90;;;;;;4934073;29;20438;-81
2021/06/24 01:13:38;;;;;;;13.10;11.70;;;14.20;99.90;;;;;;4935426;29;20450;-83
2021/06/24 01:16:05;;;;;;;14.57;12.97;;;14.20;99.90;;;;;;4935965;29;20582;-83
2021/06/24 01:18:32;;;;;;;13.53;12.20;;;14.30;99.90;;;;;;4935971;29;20756;-83
2021/06/24 01:20:59;;;;;;;14.50;12.07;;;14.30;99.90;;;;;;4936496;29;20462;-86
2021/06/24 01:23:26;;;;;;;17.20;12.67;;;14.30;99.90;;;;;;4937648;29;20452;-85
2021/06/24 01:25:54;;;;;;;14.87;12.67;;;14.30;99.90;;;;;;4937338;29;20444;-81
2021/06/24 01:28:21;;;;;;;14.57;13.07;;;14.30;99.90;;;;;;4937506;29;20478;-82
2021/06/24 01:30:48;;;;;;;13.43;11.53;;;14.30;99.90;;;;;;4934535;29;20438;-84
2021/06/24 01:33:16;;;;;;;14.33;12.93;;;14.30;99.90;;;;;;4933860;29;20425;-84
2021/06/24 01:35:43;;;;;;;12.63;10.83;;;14.30;99.90;;;;;;4935235;29;20455;-83
2021/06/24 01:38:11;;;;;;;12.53;11.10;;;14.30;99.90;;;;;;4918375;29;20421;-84
2021/06/24 01:40:39;;;;;;;14.27;12.63;;;14.40;99.90;;;;;;4917950;29;20454;-83
2021/06/24 01:43:08;;;;;;;13.60;12.27;;;14.40;99.90;;;;;;4927047;29;20501;-84
2021/06/24 01:45:44;;;;;;;14.13;11.60;;;14.40;99.90;;;;;;4918289;29;20467;-82
2021/06/24 01:48:11;;;;;;;12.17;10.97;;;14.40;99.90;;;;;;4918176;29;20441;-82
2021/06/24 01:50:38;;;;;;;11.90;10.80;;;14.40;99.90;;;;;;4918186;29;20421;-82
2021/06/24 01:53:05;;;;;;;12.53;11.23;;;14.40;99.90;;;;;;4930034;29;20426;-83
2021/06/24 01:55:33;;;;;;;12.00;10.90;;;14.50;99.90;;;;;;4933331;29;20463;-84
2021/06/24 01:58:00;;;;;;;11.93;10.83;;;14.40;99.90;;;;;;4935246;29;20454;-84
2021/06/24 02:00:29;;;;;;;12.63;11.33;;;14.50;99.90;;;;;;4918074;29;20425;-82
2021/06/24 02:02:57;;;;;;;14.07;12.70;;;14.40;99.90;;;;;;4934399;29;20508;-82
2021/06/24 02:05:24;;;;;;;12.20;11.10;;;14.40;99.90;;;;;;4935689;29;20501;-82
2021/06/24 02:07:51;;;;;;;13.63;12.23;;;14.50;99.90;;;;;;4920175;29;20807;-80
2021/06/24 02:10:18;;;;;;;12.40;11.30;;;14.50;99.90;;;;;;4936937;29;20425;-84
2021/06/24 02:12:45;;;;;;;12.53;11.33;;;14.50;99.90;;;;;;4920030;29;20504;-83
2021/06/24 02:15:14;;;;;;;12.80;11.50;;;14.50;99.90;;;;;;4933360;29;20469;-83
2021/06/24 02:17:43;;;;;;;13.50;12.10;;;14.50;99.90;;;;;;4900579;29;20554;-82
2021/06/24 02:20:14;;;;;;;14.33;12.23;;;14.50;99.90;;;;;;4934651;29;20853;-84
2021/06/24 02:22:41;;;;;;;11.90;10.80;;;14.50;99.90;;;;;;4934784;29;20489;-84
2021/06/24 02:25:12;;;;;;;14.27;11.47;;;14.50;99.90;;;;;;4934781;29;20447;-83
2021/06/24 02:27:39;;;;;;;13.37;12.07;;;14.50;99.90;;;;;;4923117;29;20483;-81
2021/06/24 02:30:08;;;;;;;13.07;11.77;;;14.50;99.90;;;;;;4917539;29;20455;-84
2021/06/24 02:32:35;;;;;;;13.13;11.57;;;14.50;99.90;;;;;;4917445;29;20452;-83
2021/06/24 02:35:04;;;;;;;14.20;11.10;;;14.50;99.90;;;;;;4917525;29;20442;-83
2021/06/24 02:37:31;;;;;;;13.10;11.90;;;14.50;99.90;;;;;;4931246;29;20421;-82
2021/06/24 02:39:58;;;;;;;12.47;11.17;;;14.50;99.90;;;;;;4932749;29;20417;-84
2021/06/24 02:42:25;;;;;;;15.20;10.70;;;14.50;99.90;;;;;;4934135;29;20465;-85
2021/06/24 02:44:52;;;;;;;12.70;11.50;;;14.50;99.90;;;;;;4933919;29;20421;-82
2021/06/24 02:47:19;;;;;;;12.80;11.70;;;14.60;99.90;;;;;;4934289;29;20421;-82
2021/06/24 02:49:46;;;;;;;13.17;11.77;;;14.60;99.90;;;;;;4935259;29;20471;-84
2021/06/24 02:52:14;;;;;;;12.47;11.17;;;14.60;99.90;;;;;;4935962;29;20902;-82
2021/06/24 02:54:41;;;;;;;12.37;11.27;;;14.60;99.90;;;;;;4935823;29;20446;-80
2021/06/24 02:57:08;;;;;;;12.33;11.13;;;14.60;99.90;;;;;;4936040;29;20874;-82
2021/06/24 02:59:35;;;;;;;13.03;11.57;;;14.60;99.90;;;;;;4931822;29;20804;-84
2021/06/24 03:02:02;;;;;;;13.20;11.37;;;14.70;99.90;;;;;;4932152;29;20482;-83
2021/06/24 03:04:29;;;;;;;11.47;10.47;;;14.70;99.90;;;;;;4933915;29;20450;-83
2021/06/24 03:06:56;;;;;;;11.63;10.63;;;14.70;99.90;;;;;;4933627;29;20611;-81
2021/06/24 03:09:25;;;;;;;13.30;11.80;;;14.70;99.90;;;;;;4934095;29;20940;-81
2021/06/24 03:11:51;;;;;;;13.17;11.87;;;14.70;99.90;;;;;;4934851;29;20546;-83
2021/06/24 03:14:18;;;;;;;11.13;10.03;;;14.80;99.90;;;;;;4935581;29;20971;-82
2021/06/24 03:16:46;;;;;;;11.57;10.40;;;14.80;99.90;;;;;;4935644;29;20553;-80
2021/06/24 03:19:13;;;;;;;12.90;10.87;;;14.80;99.90;;;;;;4935743;29;20426;-84
2021/06/24 03:21:41;;;;;;;12.43;11.13;;;14.80;99.90;;;;;;4931404;29;20443;-86
2021/06/24 03:24:09;;;;;;;13.83;11.80;;;14.90;99.90;;;;;;4915305;29;20429;-86
2021/06/24 03:26:37;;;;;;;12.40;11.30;;;14.90;99.90;;;;;;4916598;29;20477;-82
2021/06/24 03:29:06;;;;;;;11.83;10.73;;;14.90;99.90;;;;;;4933008;29;21051;-83
2021/06/24 03:31:34;;;;;;;13.80;11.53;;;14.90;99.90;;;;;;4933459;29;20421;-83
2021/06/24 03:34:01;;;;;;;15.10;10.97;;;14.90;99.90;;;;;;4917741;29;20532;-84
2021/06/24 03:36:29;;;;;;;13.80;12.50;;;14.80;99.90;;;;;;4935348;29;20481;-84
2021/06/24 03:38:56;;;;;;;13.77;12.40;;;14.80;99.90;;;;;;4918425;29;20458;-85
2021/06/24 03:41:24;;;;;;;12.80;11.30;;;14.80;99.90;;;;;;4935423;29;20450;-83
2021/06/24 03:43:54;;;;;;;12.70;11.50;;;14.80;99.90;;;;;;4930886;29;20854;-83
2021/06/24 03:46:45;;;;;;;13.10;11.80;;;14.80;99.90;;;;;;4914703;29;20452;-83
2021/06/24 03:49:12;;;;;;;12.57;11.40;;;14.80;99.90;;;;;;4933053;29;20454;-83
2021/06/24 03:51:39;;;;;;;13.17;11.73;;;14.80;99.90;;;;;;4932974;29;20872;-81
2021/06/24 03:54:06;;;;;;;13.13;11.83;;;14.90;99.90;;;;;;4933516;29;20421;-84
2021/06/24 03:56:33;;;;;;;14.10;12.57;;;14.80;99.90;;;;;;4934385;29;20453;-83
2021/06/24 03:59:01;;;;;;;12.70;11.60;;;14.80;99.90;;;;;;4935186;29;20421;-82
2021/06/24 04:01:29;;;;;;;13.90;11.00;;;14.80;99.90;;;;;;4935369;29;20436;-84
2021/06/24 04:03:56;;;;;;;13.23;12.03;;;14.80;99.90;;;;;;4934357;29;20560;-83
2021/06/24 04:06:23;;;;;;;14.23;12.13;;;14.70;99.90;;;;;;4935090;29;20437;-82
2021/06/24 04:08:49;;;;;;;13.50;12.13;;;14.80;99.90;;;;;;4935904;29;20453;-83
2021/06/24 04:11:16;;;;;;;14.63;13.03;;;14.70;99.90;;;;;;4936979;29;20429;-84
2021/06/24 04:13:43;;;;;;;12.97;11.30;;;14.70;99.90;;;;;;4936936;29;20564;-80
2021/06/24 04:16:11;;;;;;;14.53;13.13;;;14.70;99.90;;;;;;4936982;29;20448;-82
2021/06/24 04:18:38;;;;;;;14.27;12.87;;;14.70;99.90;;;;;;4938222;29;20980;-83
2021/06/24 04:21:06;;;;;;;15.93;12.87;;;14.80;99.90;;;;;;4938964;29;20456;-82
2021/06/24 04:23:33;;;;;;;15.13;13.70;;;14.80;99.90;;;;;;4922221;29;20460;-87
2021/06/24 04:26:00;;;;;;;14.60;13.17;;;14.80;99.90;;;;;;4937850;29;20464;-82
2021/06/24 04:28:27;;;;;;;11.80;10.60;;;14.80;99.90;;;;;;4934318;29;20589;-87
2021/06/24 04:30:55;;;;;;;12.80;11.60;;;14.80;99.90;;;;;;4935789;29;20566;-84
2021/06/24 04:33:23;;;;;;;14.80;12.27;;;14.80;99.90;;;;;;4936389;29;20515;-85
2021/06/24 04:35:50;;;;;;;13.83;12.27;;;14.80;99.90;;;;;;4936470;29;20571;-84
2021/06/24 04:38:17;;;;;;;17.00;12.90;;;14.90;99.90;;;;;;4936911;29;20545;-88
2021/06/24 04:40:44;;;;;;;12.07;10.87;;;14.90;99.90;;;;;;4937778;29;20485;-84
2021/06/24 04:43:11;;;;;;;13.07;11.83;;;14.90;99.90;;;;;;4938269;29;20482;-85
2021/06/24 04:45:38;;;;;;;12.90;11.37;;;14.90;99.90;;;;;;4938254;29;20463;-85
2021/06/24 04:48:06;;;;;;;13.30;11.93;;;15.00;99.90;;;;;;4937233;29;20513;-86
2021/06/24 04:50:35;;;;;;;13.47;12.00;;;15.00;99.90;;;;;;4934028;29;20474;-83
2021/06/24 04:53:02;;;;;;;13.17;11.80;;;15.00;99.90;;;;;;4935155;29;20478;-80
2021/06/24 04:55:38;;;;;;;13.60;11.87;;;15.10;99.90;;;;;;4935872;29;20444;-83
2021/06/24 04:58:07;;;;;;;18.90;12.90;;;15.10;99.90;;;;;;4935858;29;20436;-83
2021/06/24 05:00:35;;;;;;;13.90;11.90;;;15.20;99.90;;;;;;4936322;29;20540;-83
2021/06/24 05:03:02;;;;;;;12.80;11.60;;;15.20;99.90;;;;;;4921239;29;20483;-87
2021/06/24 05:05:29;;;;;;;15.80;12.93;;;15.20;99.90;;;;;;4921103;29;20835;-83
2021/06/24 05:07:58;;;;;;;14.10;12.20;;;15.30;99.90;;;;;;4937964;29;20436;-82
2021/06/24 05:10:25;;;;;;;13.40;12.10;;;15.30;99.90;;;;;;4919694;29;20454;-84
2021/06/24 05:12:52;;;;;;;14.70;12.30;;;15.40;99.90;;;;;;4933571;29;20449;-83
2021/06/24 05:15:19;;;;;;;10.90;9.90;;;15.40;99.90;;;;;;4935029;29;20469;-85
2021/06/24 05:17:45;;;;;;;13.00;11.80;;;15.40;99.90;;;;;;4935701;29;20431;-83
2021/06/24 05:20:17;;;;;;;12.83;11.40;;;15.50;99.90;;;;;;4935640;29;20813;-84
2021/06/24 05:22:43;;;;;;;13.27;11.03;;;15.60;99.90;;;;;;4933696;29;20703;-83
2021/06/24 05:25:13;;;;;;;13.13;11.83;;;15.60;99.90;;;;;;4918409;29;20480;-84
2021/06/24 05:27:42;;;;;;;13.23;11.93;;;15.60;99.90;;;;;;4918757;29;20479;-84
2021/06/24 05:30:10;;;;;;;11.67;10.57;;;15.60;99.90;;;;;;4918860;29;20456;-83
2021/06/24 05:32:38;;;;;;;13.43;11.87;;;15.70;99.90;;;;;;4924538;29;20908;-82
2021/06/24 05:35:05;;;;;;;13.07;11.70;;;15.70;99.90;;;;;;4933071;29;20532;-84
2021/06/24 05:37:32;;;;;;;12.17;10.97;;;15.80;99.90;;;;;;4935037;29;20478;-86
2021/06/24 05:39:59;;;;;;;12.17;10.90;;;15.80;99.90;;;;;;4935237;29;20452;-83
2021/06/24 05:42:27;;;;;;;12.17;10.47;;;15.80;99.90;;;;;;4935063;29;20483;-84
2021/06/24 05:44:54;;;;;;;12.17;10.80;;;15.80;99.90;;;;;;4935375;29;20438;-81
2021/06/24 05:47:21;;;;;;;13.70;12.30;;;15.80;99.90;;;;;;4935863;29;20523;-87
2021/06/24 05:49:48;;;;;;;17.67;13.00;;;15.80;99.90;;;;;;4932958;29;20438;-85
2021/06/24 05:52:15;;;;;;;12.83;11.53;;;15.80;99.90;;;;;;4934317;29;20433;-86
2021/06/24 05:54:46;;;;;;;13.97;12.00;;;15.90;99.90;;;;;;4917970;29;20447;-86
2021/06/24 05:57:13;;;;;;;15.97;12.93;;;15.90;99.90;;;;;;4936058;29;20559;-85
2021/06/24 05:59:41;;;;;;;14.33;12.83;;;15.90;99.90;;;;;;4934913;29;20456;-84
2021/06/24 06:02:09;;;;;;;26.47;13.37;;;15.90;99.90;;;;;;4935073;29;20454;-83
2021/06/24 06:04:36;;;;;;;14.90;13.20;;;15.90;99.90;;;;;;4932365;29;20988;-86
2021/06/24 06:07:04;;;;;;;15.23;13.67;;;15.80;99.90;;;;;;4933656;29;20830;-86
2021/06/24 06:09:31;;;;;;;15.20;13.70;;;15.80;99.90;;;;;;4934156;29;20428;-80
2021/06/24 06:12:06;;;;;;;14.53;13.07;;;15.80;99.90;;;;;;4934471;29;20919;-86
2021/06/24 06:14:33;;;;;;;14.73;12.90;;;15.80;99.90;;;;;;4919098;29;20866;-82
2021/06/24 06:17:01;;;;;;;15.20;13.60;;;15.80;99.90;;;;;;4932283;29;20475;-85
2021/06/24 06:19:28;;;;;;;15.30;13.73;;;15.80;99.90;;;;;;4933207;29;20437;-86
2021/06/24 06:21:55;;;;;;;17.90;15.20;;;15.80;99.90;;;;;;4934273;29;20457;-83
2021/06/24 06:24:22;;;;;;;16.13;14.53;;;15.80;99.90;;;;;;4934741;29;20892;-83
2021/06/24 06:26:50;;;;;;;16.10;14.40;;;15.80;99.90;;;;;;4934053;29;20470;-85
2021/06/24 06:29:31;;;;;;;15.63;14.03;;;15.70;99.90;;;;;;4935152;29;20475;-89
2021/06/24 06:31:58;;;;;;;16.63;15.03;;;15.80;99.90;;;;;;4936005;29;20415;-87
2021/06/24 06:34:29;;;;;;;19.87;15.20;;;15.70;99.90;;;;;;4935786;29;20448;-87
2021/06/24 06:36:57;;;;;;;16.40;14.10;;;15.80;99.90;;;;;;4935150;29;20902;-87
2021/06/24 06:39:25;;;;;;;17.03;13.93;;;15.70;99.90;;;;;;4931325;29;20476;-86
2021/06/24 06:41:52;;;;;;;15.00;13.50;;;15.70;99.90;;;;;;4932169;29;21051;-85
2021/06/24 06:44:19;;;;;;;16.67;13.60;;;15.70;99.90;;;;;;4933395;29;20505;-86
2021/06/24 06:46:46;;;;;;;16.30;13.80;;;15.80;99.90;;;;;;4933495;29;20558;-87
2021/06/24 06:49:13;;;;;;;16.30;14.63;;;15.80;99.90;;;;;;4933336;29;20449;-86
2021/06/24 06:51:41;;;;;;;16.80;15.07;;;15.80;99.90;;;;;;4916687;29;20500;-86
2021/06/24 06:54:08;;;;;;;15.90;14.40;;;15.80;99.90;;;;;;4931553;29;20431;-89
2021/06/24 06:56:35;;;;;;;15.33;13.67;;;15.80;99.90;;;;;;4933451;29;20439;-87
2021/06/24 06:59:05;;;;;;;15.40;13.83;;;15.80;99.90;;;;;;4933939;29;20799;-86
2021/06/24 07:01:32;;;;;;;17.60;14.77;;;15.90;99.90;;;;;;4933822;29;20451;-84
2021/06/24 07:03:59;;;;;;;20.50;16.17;;;15.90;99.90;;;;;;4916777;29;20525;-88
2021/06/24 07:06:28;;;;;;;19.20;15.30;;;15.90;99.90;;;;;;4935477;29;20528;-86
2021/06/24 07:08:57;;;;;;;18.67;15.17;;;15.90;99.90;;;;;;4936648;29;20431;-87
2021/06/24 07:11:24;;;;;;;17.07;14.77;;;15.90;99.90;;;;;;4935435;29;20447;-88
2021/06/24 07:13:51;;;;;;;16.50;14.73;;;15.90;99.90;;;;;;4933716;29;20761;-85
2021/06/24 07:16:18;;;;;;;15.97;14.37;;;16.00;99.90;;;;;;4931299;29;20458;-85
2021/06/24 07:18:46;;;;;;;18.20;15.53;;;16.00;99.90;;;;;;4933271;29;20524;-84
2021/06/24 07:21:13;;;;;;;18.37;16.50;;;16.00;99.90;;;;;;4933623;29;20442;-84
2021/06/24 07:23:40;;;;;;;19.57;17.50;;;16.10;99.90;;;;;;4933562;29;21068;-82
2021/06/24 07:26:08;;;;;;;19.70;17.43;;;16.10;99.90;;;;;;4933972;29;20563;-82
2021/06/24 07:28:35;;;;;;;19.10;16.50;;;16.20;99.90;;;;;;4936177;29;20457;-85
2021/06/24 07:31:02;;;;;;;18.43;16.63;;;16.20;99.90;;;;;;4934133;29;20475;-82
2021/06/24 07:33:30;;;;;;;17.53;15.97;;;16.20;99.90;;;;;;4935607;29;20431;-83
2021/06/24 07:35:57;;;;;;;18.00;16.20;;;16.30;99.90;;;;;;4933596;29;20475;-81
2021/06/24 07:38:24;;;;;;;16.77;15.13;;;16.30;99.90;;;;;;4930131;29;20453;-85
2021/06/24 07:40:51;;;;;;;18.60;16.70;;;16.30;99.90;;;;;;4932488;29;20819;-80
2021/06/24 07:43:19;;;;;;;17.90;16.00;;;16.30;99.90;;;;;;4933284;29;20478;-85
2021/06/24 07:45:46;;;;;;;18.80;16.90;;;16.40;99.90;;;;;;4933196;29;20454;-81
2021/06/24 07:48:13;;;;;;;23.70;16.70;;;16.40;99.90;;;;;;4925297;29;20472;-82
2021/06/24 07:50:40;;;;;;;18.13;16.23;;;16.40;99.90;;;;;;4913821;29;20482;-86
2021/06/24 07:53:08;;;;;;;17.33;15.50;;;16.50;99.90;;;;;;4934202;29;20537;-85
2021/06/24 07:55:35;;;;;;;19.07;17.27;;;16.50;99.90;;;;;;4917872;29;20480;-80
2021/06/24 07:58:02;;;;;;;20.00;18.00;;;16.50;99.90;;;;;;4933879;29;20545;-80
2021/06/24 08:00:31;;;;;;;20.53;18.20;;;16.50;99.90;;;;;;4930659;29;20928;-82
2021/06/24 08:02:58;;;;;;;18.90;17.07;;;16.60;99.90;;;;;;4932165;29;20561;-84
2021/06/24 08:05:28;;;;;;;21.67;18.80;;;16.60;99.90;;;;;;4932691;29;20471;-83
2021/06/24 08:07:55;;;;;;;19.83;17.30;;;16.60;99.90;;;;;;4933258;29;20456;-84
2021/06/24 08:10:23;;;;;;;18.90;16.97;;;16.60;99.90;;;;;;4933209;29;20430;-86
2021/06/24 08:12:52;;;;;;;17.93;16.23;;;16.70;99.90;;;;;;4934948;29;20535;-83
2021/06/24 08:15:21;;;;;;;17.93;16.03;;;16.70;99.90;;;;;;4918457;29;20466;-81
2021/06/24 08:17:49;;;;;;;18.10;16.30;;;16.80;99.90;;;;;;4918385;29;20450;-87
2021/06/24 08:20:17;;;;;;;18.57;16.67;;;16.90;99.90;;;;;;4934111;29;20498;-82
2021/06/24 08:22:44;;;;;;;18.93;16.93;;;16.90;99.90;;;;;;4930507;29;20950;-88
2021/06/24 08:25:13;;;;;;;19.93;17.70;;;16.90;99.90;;;;;;4931855;29;20490;-83
2021/06/24 08:27:40;;;;;;;20.50;18.40;;;17.00;99.90;;;;;;4932236;29;20505;-85
2021/06/24 08:30:09;;;;;;;20.50;18.40;;;17.00;99.90;;;;;;4932793;29;20493;-83
2021/06/24 08:32:37;;;;;;;18.97;17.20;;;17.10;99.90;;;;;;4899905;29;20948;-82
2021/06/24 08:35:10;;;;;;;18.67;16.83;;;17.20;99.90;;;;;;4920188;29;20482;-81
2021/06/24 08:40:03;;;;;;;20.77;18.80;;;17.20;99.90;;;;;;4931654;29;20485;-83
2021/06/24 08:42:32;;;;;;;19.63;17.00;;;17.30;99.90;;;;;;4932320;29;20215;-85
2021/06/24 08:45:01;;;;;;;23.10;19.20;;;17.30;99.90;;;;;;4932566;29;21030;-87
2021/06/24 08:47:29;;;;;;;21.27;19.33;;;17.30;99.90;;;;;;4932917;29;20497;-85
2021/06/24 08:49:57;;;;;;;19.30;17.37;;;17.30;99.90;;;;;;4931862;29;20455;-83
2021/06/24 08:52:25;;;;;;;17.80;16.20;;;17.30;99.90;;;;;;4917491;29;20442;-83
2021/06/24 08:54:53;;;;;;;20.23;18.33;;;17.30;99.90;;;;;;4919046;29;20449;-84
2021/06/24 08:57:19;;;;;;;23.40;20.50;;;17.40;99.90;;;;;;4935924;29;20446;-82
2021/06/24 08:59:46;;;;;;;25.97;23.20;;;17.40;99.90;;;;;;4936545;29;20454;-84
2021/06/24 09:02:17;;;;;;;26.63;23.37;;;17.40;99.90;;;;;;4937146;29;20470;-82
2021/06/24 09:04:47;;;;;;;24.17;21.87;;;17.40;99.90;;;;;;4937965;29;20528;-83
2021/06/24 09:07:16;;;;;;;24.27;21.80;;;17.30;99.90;;;;;;4937994;29;20454;-82
2021/06/24 09:09:52;;;;;;;25.63;23.13;;;17.40;99.90;;;;;;4937816;29;20461;-84
2021/06/24 09:12:19;;;;;;;25.83;23.33;;;17.40;99.90;;;;;;4918010;29;20538;-82
2021/06/24 09:14:48;;;;;;;34.57;28.37;;;17.40;99.90;;;;;;4934321;29;20825;-82
2021/06/24 09:17:33;;;;;;;45.17;40.13;;;17.40;99.90;;;;;;4903093;29;20454;-83
2021/06/24 09:20:02;;;;;;;36.30;32.43;;;17.40;99.90;;;;;;4918798;29;20457;-84
2021/06/24 09:22:29;;;;;;;39.57;34.40;;;17.40;99.90;;;;;;4903867;29;20482;-84
2021/06/24 09:24:58;;;;;;;28.93;26.03;;;17.40;99.90;;;;;;4925924;29;20503;-84
2021/06/24 09:27:29;;;;;;;27.37;24.57;;;17.50;99.90;;;;;;4918564;29;20479;-81
2021/06/24 09:30:08;;;;;;;25.27;22.70;;;17.60;99.90;;;;;;4918668;29;20798;-83
2021/06/24 09:32:37;;;;;;;22.00;19.80;;;17.60;99.90;;;;;;4917604;29;20454;-84
2021/06/24 09:35:07;;;;;;;22.60;20.40;;;17.70;99.90;;;;;;4933865;29;20473;-82
2021/06/24 09:38:00;;;;;;;20.40;18.50;;;17.70;99.90;;;;;;4916912;29;20936;-81
2021/06/24 09:40:39;;;;;;;22.00;19.43;;;17.80;99.90;;;;;;4921775;29;20832;-83
2021/06/24 09:43:06;;;;;;;21.67;19.57;;;17.90;99.90;;;;;;4884560;29;20536;-81
2021/06/24 09:45:33;;;;;;;23.47;21.17;;;18.00;99.90;;;;;;4918277;29;20571;-85
2021/06/24 09:48:08;;;;;;;25.17;22.33;;;18.10;99.90;;;;;;4919781;29;20475;-82
2021/06/24 09:50:35;;;;;;;20.07;18.23;;;18.20;99.90;;;;;;4920469;29;20450;-83
2021/06/24 09:53:08;;;;;;;19.80;17.70;;;18.30;99.90;;;;;;4937224;29;20447;-83
2021/06/24 09:55:40;;;;;;;20.00;18.20;;;18.40;99.90;;;;;;4919723;29;20550;-82
2021/06/24 09:58:15;;;;;;;19.07;17.17;;;18.50;99.90;;;;;;4932553;29;20539;-81
2021/06/24 10:00:51;;;;;;;21.73;19.53;;;18.60;99.90;;;;;;4917430;29;20564;-84
2021/06/24 10:03:18;;;;;;;20.13;18.23;;;18.70;99.90;;;;;;4934186;29;20477;-83
2021/06/24 10:05:49;;;;;;;24.63;22.27;;;18.80;99.90;;;;;;4934939;29;20486;-86
2021/06/24 10:08:16;;;;;;;21.63;19.37;;;18.90;99.90;;;;;;4935299;29;20497;-83
2021/06/24 10:10:45;;;;;;;20.00;17.50;;;18.90;99.90;;;;;;4919483;29;20465;-82
2021/06/24 10:13:13;;;;;;;21.30;19.33;;;18.90;99.90;;;;;;4920070;29;20697;-83
2021/06/24 10:15:40;;;;;;;24.07;21.97;;;19.00;99.90;;;;;;4919875;29;20463;-86
2021/06/24 10:18:07;;;;;;;22.10;19.90;;;19.10;99.90;;;;;;4919243;29;20447;-86
2021/06/24 10:20:34;;;;;;;23.80;21.40;;;19.20;99.90;;;;;;4915517;29;20539;-83
2021/06/24 10:23:04;;;;;;;19.50;17.57;;;19.30;99.90;;;;;;4916795;29;20852;-81
2021/06/24 10:25:32;;;;;;;19.87;18.07;;;19.40;99.90;;;;;;4917732;29;20486;-80
2021/06/24 10:28:02;;;;;;;22.53;20.50;;;19.50;99.90;;;;;;4934592;29;20604;-82
2021/06/24 10:30:39;;;;;;;19.87;18.07;;;19.60;99.90;;;;;;4934621;29;20446;-82
2021/06/24 10:33:09;;;;;;;16.30;14.83;;;19.60;99.90;;;;;;4903837;29;20449;-82
2021/06/24 10:35:38;;;;;;;18.43;16.63;;;19.60;99.90;;;;;;4919676;29;20473;-86
2021/06/24 10:38:06;;;;;;;19.33;17.53;;;19.70;99.90;;;;;;4919552;29;20442;-87
2021/06/24 10:40:35;;;;;;;19.00;17.30;;;19.70;99.90;;;;;;4918413;29;20442;-82
2021/06/24 10:43:05;;;;;;;16.83;15.50;;;19.70;99.90;;;;;;4914342;29;20874;-84
2021/06/24 10:45:33;;;;;;;16.03;14.60;;;19.80;99.90;;;;;;4915788;29;20486;-84
2021/06/24 10:48:20;;;;;;;21.20;19.07;;;19.80;99.90;;;;;;4933940;29;20454;-83
2021/06/24 10:50:57;;;;;;;26.53;23.87;;;19.80;99.90;;;;;;4888087;29;20526;-83
2021/06/24 10:53:40;;;;;;;24.00;21.70;;;19.70;99.90;;;;;;4915298;29;20902;-84
2021/06/24 10:56:23;;;;;;;18.70;16.80;;;19.70;99.90;;;;;;4930370;29;20461;-83
2021/06/24 10:58:52;;;;;;;16.33;14.70;;;19.80;99.90;;;;;;4932640;29;20537;-82
2021/06/24 11:01:42;;;;;;;13.80;12.60;;;19.50;99.90;;;;;;4933911;29;20442;-83
2021/06/24 11:04:10;;;;;;;13.30;12.00;;;19.70;99.90;;;;;;4919700;29;20996;-84
2021/06/24 11:06:50;;;;;;;13.80;12.50;;;19.70;99.90;;;;;;4934134;29;20458;-83
2021/06/24 11:09:19;;;;;;;13.50;12.30;;;19.70;99.90;;;;;;4917853;29;20483;-84
2021/06/24 11:11:47;;;;;;;12.33;10.97;;;19.80;99.90;;;;;;4935726;29;20545;-84
2021/06/24 11:14:17;;;;;;;12.23;10.43;;;19.90;99.90;;;;;;4933261;29;20502;-84
2021/06/24 11:16:44;;;;;;;10.77;9.60;;;20.00;99.90;;;;;;4931353;29;20475;-83
2021/06/24 11:19:13;;;;;;;11.40;10.30;;;20.10;99.90;;;;;;4915995;29;20484;-79
2021/06/24 11:21:52;;;;;;;10.00;9.20;;;20.10;99.90;;;;;;4915676;29;20526;-83
2021/06/24 11:24:23;;;;;;;10.47;9.57;;;20.10;99.90;;;;;;4933905;29;20937;-85
2021/06/24 11:26:52;;;;;;;12.30;11.00;;;20.20;99.90;;;;;;4909998;29;20900;-81
2021/06/24 11:29:29;;;;;;;14.80;11.10;;;20.20;99.90;;;;;;4918875;29;20446;-83
2021/06/24 11:31:59;;;;;;;12.87;11.57;;;20.20;99.90;;;;;;4935387;29;20998;-83
2021/06/24 11:34:35;;;;;;;12.67;11.67;;;20.10;99.90;;;;;;4918782;29;20849;-81
2021/06/24 11:37:04;;;;;;;12.43;11.33;;;20.10;99.90;;;;;;4932393;29;20472;-82
2021/06/24 11:39:34;;;;;;;13.80;12.27;;;20.10;99.90;;;;;;4914151;29;20450;-84
2021/06/24 11:42:06;;;;;;;13.23;12.13;;;20.10;99.90;;;;;;4896192;29;20919;-81
2021/06/24 11:44:38;;;;;;;12.97;11.70;;;20.10;99.90;;;;;;4902513;29;20995;-86
2021/06/24 11:47:08;;;;;;;15.80;11.20;;;20.10;99.90;;;;;;4933652;29;20447;-84
2021/06/24 12:01:16;;;;;;;15.43;13.97;;;20.10;99.90;;;;;;4929494;29;20509;-86
2021/06/24 12:03:47;;;;;;;12.73;11.23;;;20.10;99.90;;;;;;4932673;29;20452;-85
2021/06/24 12:06:14;;;;;;;12.03;10.80;;;20.20;99.90;;;;;;4900296;29;20490;-83
2021/06/24 12:08:42;;;;;;;10.87;9.87;;;20.20;99.90;;;;;;4933302;29;20454;-86
2021/06/24 12:11:11;;;;;;;10.97;9.97;;;20.20;99.90;;;;;;4916482;29;20561;-83
2021/06/24 12:13:43;;;;;;;14.97;12.63;;;20.30;99.90;;;;;;4934689;29;20544;-83
2021/06/24 12:16:13;;;;;;;13.23;10.70;;;20.10;99.90;;;;;;4917876;29;20475;-82
2021/06/24 12:18:42;;;;;;;12.77;11.57;;;20.20;99.90;;;;;;4935132;29;20478;-82
2021/06/24 12:21:10;;;;;;;10.87;9.77;;;20.20;99.90;;;;;;4900855;29;20937;-86
2021/06/24 12:23:40;;;;;;;11.83;10.73;;;20.20;99.90;;;;;;4897865;29;20486;-81
2021/06/24 12:26:08;;;;;;;10.97;10.07;;;20.20;99.90;;;;;;4934605;29;20481;-86
2021/06/24 12:28:35;;;;;;;10.33;9.37;;;20.20;99.90;;;;;;4919268;29;20504;-90
2021/06/24 12:31:02;;;;;;;10.10;9.13;;;20.30;99.90;;;;;;4937019;29;20461;-81
2021/06/24 12:33:30;;;;;;;12.80;10.10;;;20.20;99.90;;;;;;4920045;29;20550;-81
2021/06/24 12:35:58;;;;;;;11.57;10.47;;;20.20;99.90;;;;;;4938503;29;20537;-83
2021/06/24 12:38:26;;;;;;;11.00;9.90;;;20.20;99.90;;;;;;4938663;29;20451;-83
2021/06/24 12:40:55;;;;;;;11.07;9.93;;;20.10;99.90;;;;;;4938682;29;20517;-83
2021/06/24 12:43:24;;;;;;;10.57;9.50;;;20.10;99.90;;;;;;4920442;29;20588;-86
2021/06/24 12:45:56;;;;;;;11.43;10.33;;;20.10;99.90;;;;;;4933809;29;20530;-82
2021/06/24 12:48:33;;;;;;;11.80;10.60;;;20.00;99.90;;;;;;4935729;29;20541;-82
2021/06/24 12:51:02;;;;;;;10.20;9.23;;;19.90;99.90;;;;;;4935766;29;20454;-83